Latest Weather Observations for Marion Reef

IDQ60801

Issued at 11:05 pm EST Tuesday 21 October 2014 (issued every 30 minutes, with the page automatically refreshed every 10 minutes)

About weather observations | Map of weather stations | Latest weather observations for QLD | Other Formats
Station Details ID: 200704 Name: MARION REEF Lat: -19.10 Lon: 152.39 Height: 2.0 m
Data from the previous 72 hours. | See also: Recent months for locations in Queensland
Date/Time
EST
Temp
°C
App
Temp
°C
Dew
Point
Rel
Hum
%
Delta-T
°C
Wind Press
QNH
hPa
Press
MSL
hPa
Rain
since 9 am
mm
Dir
 
Spd
km/h
Gust
km/h
Spd
kts
Gust
kts
21/11:00pm 23.4 - - - - ESE 37 44 20 24 1020.6 1020.6 -
21/10:30pm 23.4 - - - - SE 41 46 22 25 1020.5 - -
21/10:00pm 23.5 - - - - ESE 43 52 23 28 1020.5 1020.4 -
21/09:30pm 23.3 - - - - ESE 46 54 25 29 1020.4 - -
21/09:00pm 23.2 - - - - ESE 44 54 24 29 1020.2 1020.1 -
21/08:30pm 23.4 - - - - ESE 44 54 24 29 1020.0 - -
21/08:00pm 23.5 - - - - ESE 46 52 25 28 1019.8 1019.7 -
21/07:30pm 23.5 - - - - ESE 44 52 24 28 1019.5 - -
21/07:00pm 23.7 - - - - SE 43 50 23 27 1019.4 1019.4 -
21/06:30pm 23.4 - - - - SE 43 52 23 28 1019.2 - -
21/06:00pm 23.7 - - - - SE 43 48 23 26 1019.0 1019.0 -
21/05:30pm 23.6 - - - - SE 43 52 23 28 1018.7 - -
21/05:00pm 23.5 - - - - SE 41 50 22 27 1018.5 1018.4 -
21/04:30pm 23.7 - - - - SE 41 46 22 25 1018.3 - -
21/04:00pm 23.5 - - - - SE 41 46 22 25 1018.2 1018.1 -
21/03:30pm 23.5 - - - - SE 41 46 22 25 1018.1 - -
21/03:00pm 23.6 - - - - SE 41 50 22 27 1018.1 1018.1 -
21/02:30pm 23.4 - - - - SE 44 50 24 27 1018.1 - -
21/02:00pm 23.6 - - - - SE 44 52 24 28 1018.1 1018.0 -
21/01:30pm 23.5 - - - - SE 44 52 24 28 1018.2 - -
21/01:00pm 23.3 - - - - SE 46 54 25 29 1018.4 1018.3 -
21/12:30pm 23.5 - - - - SE 46 56 25 30 1018.8 - -
21/12:00pm 23.6 - - - - SE 46 54 25 29 1019.1 1019.0 -
21/11:30am 23.6 - - - - SE 44 52 24 28 1019.5 - -
21/11:00am 23.6 - - - - SE 46 56 25 30 1019.8 1019.7 -
21/10:30am 23.7 - - - - SE 46 52 25 28 1020.1 - -
21/10:00am 23.5 - - - - SE 44 54 24 29 1020.1 1019.9 -
21/09:30am 23.7 - - - - SE 43 50 23 27 1020.1 - -
21/09:00am 23.7 - - - - SE 46 54 25 29 1020.1 1020.1 -
21/08:30am 23.5 - - - - SE 46 54 25 29 1019.9 - -
21/08:00am 23.3 - - - - SE 44 52 24 28 1019.6 1019.5 -
21/07:30am 23.6 - - - - ESE 44 52 24 28 1019.5 - -
21/07:00am 23.5 - - - - SE 43 50 23 27 1019.2 1019.1 -
21/06:30am 23.2 - - - - ESE 41 50 22 27 1018.8 - -
21/06:00am 23.2 - - - - SE 43 46 23 25 1018.4 1018.4 -
21/05:30am 23.4 - - - - SE 41 48 22 26 1018.0 - -
21/05:00am 23.2 - - - - SE 39 46 21 25 1017.8 1017.8 -
21/04:30am 23.3 - - - - SE 39 46 21 25 1017.8 - -
21/04:00am 23.3 - - - - SE 39 44 21 24 1017.6 1017.5 -
21/03:30am 23.2 - - - - SE 43 48 23 26 1017.4 - -
21/03:00am 23.0 - - - - SE 43 46 23 25 1017.5 1017.4 -
21/02:30am 23.0 - - - - SE 43 48 23 26 1017.7 - -
21/02:00am 23.1 - - - - SE 41 46 22 25 1017.9 1017.8 -
21/01:30am 23.2 - - - - SE 41 50 22 27 1018.2 - -
21/01:00am 23.2 - - - - SE 43 50 23 27 1018.4 1018.3 -
21/12:30am 23.4 - - - - ESE 39 48 21 26 1018.9 - -
21/12:00am 23.3 - - - - SE 41 46 22 25 1019.2 1019.1 -
 
Date/Time
EST
Temp
°C
App
Temp
°C
Dew
Point
Rel
Hum
%
Delta-T
°C
Wind Press
QNH
hPa
Press
MSL
hPa
Rain
since 9 am
mm
Dir
 
Spd
km/h
Gust
km/h
Spd
kts
Gust
kts
20/11:30pm 23.5 - - - - SE 41 46 22 25 1019.5 - -
20/11:00pm 23.4 - - - - SE 44 50 24 27 1019.7 1019.6 -
20/10:30pm 23.3 - - - - SE 43 48 23 26 1019.7 - -
20/10:00pm 23.4 - - - - ESE 44 50 24 27 1019.8 1019.7 -
20/09:30pm 23.3 - - - - SE 43 48 23 26 1019.9 - -
20/09:00pm 23.6 - - - - SE 44 50 24 27 1019.7 1019.6 -
20/08:30pm 23.5 - - - - SE 43 50 23 27 1019.3 - -
20/08:00pm 23.3 - - - - ESE 44 48 24 26 1019.1 1019.0 -
20/07:30pm 23.4 - - - - SE 44 54 24 29 1018.6 - -
20/07:00pm 23.3 - - - - SE 41 46 22 25 1018.5 1018.5 -
20/06:30pm 23.1 - - - - ESE 41 50 22 27 1018.4 - -
20/06:00pm 23.3 - - - - SE 41 46 22 25 1018.1 1018.0 -
20/05:30pm 23.2 - - - - ESE 37 44 20 24 1018.1 - -
20/05:00pm 23.4 - - - - SE 39 46 21 25 1017.7 1017.7 -
20/04:30pm 23.5 - - - - SE 39 44 21 24 1017.5 - -
20/04:00pm 23.3 - - - - SE 41 46 22 25 1017.3 1017.2 -
20/03:30pm 23.4 - - - - SE 39 46 21 25 1017.3 - -
20/03:00pm 23.3 - - - - SE 39 44 21 24 1017.1 1017.1 -
20/02:30pm 23.4 - - - - SE 41 46 22 25 1017.1 - -
20/02:00pm 23.7 - - - - SE 39 43 21 23 1017.3 1017.1 -
20/01:30pm 23.6 - - - - SE 39 46 21 25 1017.6 - -
20/01:00pm 23.4 - - - - SE 39 46 21 25 1017.9 1017.8 -
20/12:30pm 23.5 - - - - SE 39 44 21 24 1018.3 - -
20/12:00pm 23.6 - - - - SE 39 46 21 25 1018.7 1018.6 -
20/11:30am 23.3 - - - - SE 41 48 22 26 1019.0 - -
20/11:00am 23.5 - - - - SE 41 46 22 25 1019.4 1019.2 -
20/10:30am 23.6 - - - - SE 39 48 21 26 1019.8 - -
20/10:00am 23.4 - - - - SE 39 46 21 25 1020.3 1020.2 -
20/09:30am 23.4 - - - - SE 39 44 21 24 1020.2 - -
20/09:00am 23.6 - - - - SE 39 46 21 25 1020.3 1020.2 -
20/08:30am 23.4 - - - - SE 41 50 22 27 1020.4 - -
20/08:00am 23.2 - - - - SE 43 46 23 25 1020.3 1020.2 -
20/07:30am 23.3 - - - - SE 43 48 23 26 1020.0 - -
20/07:00am 23.4 - - - - SE 41 46 22 25 1019.7 1019.6 -
20/06:30am 23.1 - - - - SE 41 50 22 27 1019.3 - -
20/06:00am 23.1 - - - - SE 43 50 23 27 1019.0 1019.0 -
20/05:30am 23.1 - - - - SE 44 50 24 27 1018.5 - -
20/05:00am 23.2 - - - - SE 44 52 24 28 1018.2 1018.2 -
20/04:30am 23.1 - - - - SE 44 54 24 29 1017.9 - -
20/04:00am 23.1 - - - - SE 46 54 25 29 1017.9 1017.8 -
20/03:30am 23.1 - - - - SE 41 52 22 28 1017.8 - -
20/03:00am 23.1 - - - - SE 43 50 23 27 1017.8 1017.7 -
20/02:30am 23.2 - - - - SE 44 52 24 28 1017.9 - -
20/02:00am 23.1 - - - - SE 43 50 23 27 1018.0 1017.9 -
20/01:30am 23.2 - - - - SE 44 50 24 27 1018.4 - -
20/01:00am 23.2 - - - - SE 43 52 23 28 1018.6 1018.5 -
20/12:30am 23.4 - - - - SE 43 48 23 26 1019.1 - -
20/12:00am 23.3 - - - - SE 43 48 23 26 1019.3 1019.2 -
 
Date/Time
EST
Temp
°C
App
Temp
°C
Dew
Point
Rel
Hum
%
Delta-T
°C
Wind Press
QNH
hPa
Press
MSL
hPa
Rain
since 9 am
mm
Dir
 
Spd
km/h
Gust
km/h
Spd
kts
Gust
kts
19/11:30pm 23.3 - - - - SE 44 50 24 27 1019.7 - -
19/11:00pm 23.4 - - - - SE 43 50 23 27 1020.1 1019.9 -
19/10:30pm 23.5 - - - - SE 44 52 24 28 1020.4 - -
19/10:00pm 23.3 - - - - SE 44 50 24 27 1020.4 1020.3 -
19/09:30pm 23.6 - - - - SE 46 54 25 29 1020.4 - -
19/09:00pm 23.6 - - - - SE 46 57 25 31 1020.2 1020.2 -
19/08:30pm 23.5 - - - - SE 48 61 26 33 1020.1 - -
19/08:00pm 23.8 - - - - SE 50 61 27 33 1019.8 1019.7 -
19/07:30pm 23.6 - - - - SE 48 59 26 32 1019.8 - -
19/07:00pm 23.6 - - - - SE 48 56 26 30 1019.5 1019.4 -
19/06:30pm 23.7 - - - - SE 48 57 26 31 1019.3 - -
19/06:00pm 23.3 - - - - SE 48 54 26 29 1019.1 1019.0 -
19/05:30pm 23.4 - - - - SE 44 54 24 29 1018.9 - -
19/05:00pm 23.6 - - - - SE 46 54 25 29 1018.7 1018.6 -
19/04:30pm 23.4 - - - - SE 48 57 26 31 1018.2 - -
19/04:00pm 23.6 - - - - SE 50 59 27 32 1017.8 1017.8 -
19/03:30pm 23.8 - - - - SE 48 56 26 30 1017.5 - -
19/03:00pm 23.5 - - - - SE 46 56 25 30 1017.5 1017.4 -
19/02:30pm 23.9 - - - - SE 46 56 25 30 1017.5 - -
19/02:00pm 23.7 - - - - SE 48 56 26 30 1017.8 1017.6 -
19/01:30pm 23.6 - - - - SE 46 56 25 30 1018.0 - -
19/01:00pm 23.6 - - - - SE 46 54 25 29 1018.2 1018.1 -
19/12:30pm 23.9 - - - - SE 46 52 25 28 1018.6 - -
19/12:00pm 23.8 - - - - SE 44 56 24 30 1018.9 1018.7 -
19/11:30am 23.6 - - - - SE 46 54 25 29 1019.2 - -
19/11:00am 23.7 - - - - SE 46 56 25 30 1019.6 1019.5 -
19/10:30am 23.7 - - - - SE 46 54 25 29 1019.7 - -
19/10:00am 23.7 - - - - SE 44 50 24 27 1020.0 1019.8 -
19/09:30am 23.8 - - - - SE 44 54 24 29 1020.2 - -
19/09:00am 23.4 - - - - SE 44 52 24 28 1020.2 1020.2 -
19/08:30am 23.7 - - - - SE 44 54 24 29 1020.1 - -
19/08:00am 23.7 - - - - SE 44 56 24 30 1020.1 1020.1 -
19/07:30am 23.3 - - - - SE 46 56 25 30 1019.9 - -
19/07:00am 23.4 - - - - SE 48 57 26 31 1019.6 1019.6 -
19/06:30am 23.5 - - - - SE 50 57 27 31 1019.2 - -
19/06:00am 23.4 - - - - SE 48 57 26 31 1018.9 1018.9 -
19/05:30am 23.4 - - - - SE 46 54 25 29 1018.6 - -
19/05:00am 23.4 - - - - SE 48 57 26 31 1018.3 1018.2 -
19/04:30am 23.4 - - - - SE 48 57 26 31 1017.9 - -
19/04:00am 23.1 - - - - SE 50 56 27 30 1017.7 1017.6 -
19/03:30am 23.3 - - - - SE 50 61 27 33 1017.7 - -
19/03:00am 23.3 - - - - SE 48 57 26 31 1017.7 1017.6 -
19/02:30am 23.1 - - - - SE 48 56 26 30 1017.8 - -
19/02:00am 23.3 - - - - SE 50 57 27 31 1017.9 1017.8 -
19/01:30am 23.2 - - - - SE 50 59 27 32 1018.2 - -
19/01:00am 23.5 - - - - SE 50 57 27 31 1018.3 1018.2 -
19/12:30am 23.4 - - - - SE 50 59 27 32 1018.5 - -
19/12:00am 23.7 - - - - SE 50 59 27 32 1018.7 1018.6 -
 
Date/Time
EST
Temp
°C
App
Temp
°C
Dew
Point
Rel
Hum
%
Delta-T
°C
Wind Press
QNH
hPa
Press
MSL
hPa
Rain
since 9 am
mm
Dir
 
Spd
km/h
Gust
km/h
Spd
kts
Gust
kts
18/11:30pm 23.8 - - - - SE 52 61 28 33 1019.1 - -

Other Formats:

Comma delimited format used in spreadsheet applications
http://www.bom.gov.au/fwo/IDQ60801/IDQ60801.94298.axf

JavaScript Object Notation format (JSON) in row-major order
http://www.bom.gov.au/fwo/IDQ60801/IDQ60801.94298.json